Time;durP1;ratioP1;P1;durP2;ratioP2;P2;SDS_P1;SDS_P2;PMS_P1;PMS_P2;Temp;Humidity;BMP_temperature;BMP_pressure;BME280_temperature;BME280_humidity;BME280_pressure;Samples;Min_cycle;Max_cycle;Signal;HPM_P1;HPM_P2
2023/01/02 00:00:43;;;;;;;10.23;5.22;;;12.70;94.70;;;;;;5027604;28;20033;-65
2023/01/02 00:03:09;;;;;;;7.03;4.68;;;12.80;94.70;;;;;;5027198;28;20036;-65
2023/01/02 00:05:35;;;;;;;10.35;5.53;;;12.80;94.60;;;;;;5024960;28;20022;-65
2023/01/02 00:08:00;;;;;;;11.15;5.63;;;12.80;94.60;;;;;;5026198;28;20019;-66
2023/01/02 00:10:26;;;;;;;9.73;4.68;;;12.80;94.50;;;;;;5026465;28;20087;-65
2023/01/02 00:12:52;;;;;;;10.00;4.93;;;12.80;94.60;;;;;;5026546;28;20072;-65
2023/01/02 00:15:17;;;;;;;9.77;5.72;;;12.80;94.60;;;;;;5026540;28;20503;-65
2023/01/02 00:17:43;;;;;;;10.48;5.53;;;12.80;94.50;;;;;;5026450;28;20025;-65
2023/01/02 00:20:09;;;;;;;10.00;5.13;;;12.80;94.50;;;;;;5026324;28;20034;-65
2023/01/02 00:22:34;;;;;;;9.88;5.15;;;12.80;94.40;;;;;;5026063;28;20025;-65
2023/01/02 00:25:00;;;;;;;9.77;5.10;;;12.90;94.40;;;;;;5022764;28;20025;-65
2023/01/02 00:27:25;;;;;;;10.52;5.00;;;12.90;94.40;;;;;;5038063;28;20100;-66
2023/01/02 00:29:51;;;;;;;13.30;5.45;;;12.90;94.30;;;;;;5026779;28;20030;-65
2023/01/02 00:32:17;;;;;;;9.20;5.13;;;13.00;94.30;;;;;;5025705;28;20029;-65
2023/01/02 00:34:42;;;;;;;7.35;4.38;;;13.00;94.20;;;;;;5024422;28;20029;-65
2023/01/02 00:37:08;;;;;;;7.85;4.90;;;13.00;94.20;;;;;;5026237;28;20034;-65
2023/01/02 00:39:33;;;;;;;7.72;4.53;;;13.00;94.10;;;;;;5025527;28;20029;-65
2023/01/02 00:41:59;;;;;;;9.32;4.70;;;13.10;94.10;;;;;;5025636;28;20025;-65
2023/01/02 00:44:25;;;;;;;10.35;4.90;;;13.10;94.10;;;;;;5027408;28;20108;-65
2023/01/02 00:46:50;;;;;;;9.10;4.93;;;13.00;94.00;;;;;;5027020;28;20489;-65
2023/01/02 00:49:16;;;;;;;8.10;4.20;;;13.10;94.00;;;;;;5025178;28;20036;-66
2023/01/02 00:51:41;;;;;;;6.03;4.22;;;13.10;94.00;;;;;;5020460;28;20025;-66
2023/01/02 00:54:07;;;;;;;8.68;4.30;;;13.10;94.00;;;;;;5025652;28;20488;-66
2023/01/02 00:56:33;;;;;;;9.93;4.93;;;13.10;93.90;;;;;;5028385;28;20575;-66
2023/01/02 00:58:58;;;;;;;9.07;4.88;;;13.10;93.90;;;;;;5024082;28;20045;-66
2023/01/02 01:01:24;;;;;;;9.13;4.60;;;13.10;93.90;;;;;;5031306;28;20025;-66
2023/01/02 01:03:49;;;;;;;7.88;4.57;;;13.10;93.90;;;;;;5030291;28;20167;-66
2023/01/02 01:06:15;;;;;;;9.27;4.65;;;13.10;93.90;;;;;;5029543;28;20021;-67
2023/01/02 01:08:41;;;;;;;10.70;4.93;;;13.10;93.80;;;;;;5031075;28;20454;-67
2023/01/02 01:11:11;;;;;;;9.70;5.15;;;13.10;93.80;;;;;;5029540;28;20033;-66
2023/01/02 01:13:38;;;;;;;7.40;4.53;;;13.10;93.90;;;;;;5029126;28;20033;-66
2023/01/02 01:16:05;;;;;;;10.45;4.70;;;13.10;93.90;;;;;;5030508;28;20036;-66
2023/01/02 01:18:31;;;;;;;10.80;5.43;;;13.10;93.90;;;;;;5028955;28;20552;-66
2023/01/02 01:20:56;;;;;;;10.98;4.50;;;13.10;93.80;;;;;;5031093;28;20033;-66
2023/01/02 01:23:22;;;;;;;11.05;4.97;;;13.10;93.90;;;;;;5030297;28;20041;-66
2023/01/02 01:25:48;;;;;;;9.93;4.63;;;13.20;93.80;;;;;;5030560;28;20037;-66
2023/01/02 01:28:14;;;;;;;10.80;4.57;;;13.20;93.80;;;;;;5029138;28;20014;-66
2023/01/02 01:30:40;;;;;;;7.95;4.10;;;13.20;93.80;;;;;;5031246;28;20104;-66
2023/01/02 01:33:05;;;;;;;7.32;4.40;;;13.20;93.70;;;;;;5030607;28;20032;-66
2023/01/02 01:35:33;;;;;;;7.97;4.32;;;13.20;93.70;;;;;;5027473;28;20037;-66
2023/01/02 01:37:58;;;;;;;6.35;3.92;;;13.20;93.70;;;;;;5030635;28;20026;-66
2023/01/02 01:40:24;;;;;;;8.35;4.78;;;13.30;93.70;;;;;;5030113;28;20550;-66
2023/01/02 01:42:49;;;;;;;7.97;4.38;;;13.30;93.60;;;;;;5030083;28;20597;-66
2023/01/02 01:45:15;;;;;;;9.05;4.18;;;13.30;93.50;;;;;;5030266;28;20418;-66
2023/01/02 01:47:48;;;;;;;11.18;4.80;;;13.30;93.50;;;;;;5029943;28;20029;-66
2023/01/02 01:50:23;;;;;;;8.20;4.78;;;13.30;93.40;;;;;;5030003;28;20116;-66
2023/01/02 01:53:00;;;;;;;7.97;3.88;;;13.30;93.30;;;;;;5029484;28;20029;-66
2023/01/02 01:55:32;;;;;;;9.05;4.15;;;13.30;93.30;;;;;;5028067;28;20107;-66
2023/01/02 01:58:05;;;;;;;11.20;4.57;;;13.30;93.20;;;;;;5030702;28;20500;-66
2023/01/02 02:00:31;;;;;;;7.68;4.50;;;13.40;93.30;;;;;;5028924;28;20028;-66
2023/01/02 02:03:01;;;;;;;11.73;5.03;;;13.40;93.20;;;;;;5031717;28;20673;-66
2023/01/02 02:05:29;;;;;;;11.30;5.10;;;13.40;93.20;;;;;;5030684;28;20025;-66
2023/01/02 02:08:00;;;;;;;9.85;4.00;;;13.40;93.30;;;;;;5030060;28;20113;-66
2023/01/02 02:10:26;;;;;;;8.32;4.28;;;13.40;93.40;;;;;;5027601;28;20451;-66
2023/01/02 02:12:51;;;;;;;10.60;5.07;;;13.40;93.40;;;;;;5030390;28;20053;-65
2023/01/02 02:15:22;;;;;;;10.20;4.53;;;13.40;93.40;;;;;;5030234;28;20029;-66
2023/01/02 02:18:08;;;;;;;11.77;5.15;;;13.40;93.40;;;;;;5029665;28;20067;-66
2023/01/02 02:21:03;;;;;;;8.30;4.30;;;13.30;93.50;;;;;;5028307;28;20029;-65
2023/01/02 02:24:04;;;;;;;8.80;4.72;;;13.30;93.60;;;;;;5029873;28;20037;-65
2023/01/02 02:26:58;;;;;;;9.27;4.88;;;13.40;93.70;;;;;;5030107;28;20087;-66
2023/01/02 02:30:03;;;;;;;9.23;4.25;;;13.30;93.80;;;;;;5028709;28;20071;-66
2023/01/02 02:32:35;;;;;;;10.45;4.65;;;13.30;93.90;;;;;;5028674;28;20025;-66
2023/01/02 02:35:20;;;;;;;14.82;5.03;;;13.30;93.90;;;;;;5029415;28;20027;-65
2023/01/02 02:37:51;;;;;;;9.98;4.97;;;13.40;94.00;;;;;;5027632;28;20036;-65
2023/01/02 02:40:32;;;;;;;6.75;3.67;;;13.30;94.30;;;;;;5030253;28;20094;-66
2023/01/02 02:43:28;;;;;;;8.60;4.50;;;13.30;94.30;;;;;;5028637;28;20030;-65
2023/01/02 02:46:09;;;;;;;8.63;4.13;;;13.40;94.40;;;;;;5027509;28;20551;-67
2023/01/02 02:49:05;;;;;;;7.72;4.13;;;13.40;94.40;;;;;;5028789;28;20060;-66
2023/01/02 02:51:41;;;;;;;9.32;4.22;;;13.30;94.50;;;;;;5029884;28;20514;-67
2023/01/02 02:54:17;;;;;;;8.13;3.95;;;13.40;94.50;;;;;;5029318;28;20029;-66
2023/01/02 02:56:43;;;;;;;8.00;3.55;;;13.40;94.50;;;;;;5028147;28;20111;-67
2023/01/02 02:59:11;;;;;;;9.90;3.85;;;13.40;94.50;;;;;;5029411;28;20026;-67
2023/01/02 03:01:36;;;;;;;6.75;3.95;;;13.50;94.50;;;;;;5025522;28;20022;-68
2023/01/02 03:04:07;;;;;;;10.98;4.30;;;13.50;94.60;;;;;;5025895;28;20383;-69
2023/01/02 03:06:36;;;;;;;12.13;4.93;;;13.40;94.60;;;;;;5029214;28;20041;-67
2023/01/02 03:09:22;;;;;;;8.70;4.75;;;13.40;94.70;;;;;;5027641;28;20021;-67
2023/01/02 03:12:03;;;;;;;10.48;5.03;;;13.40;94.90;;;;;;5028794;28;20044;-67
2023/01/02 03:14:56;;;;;;;8.30;3.92;;;13.40;94.90;;;;;;5028341;28;20037;-68
2023/01/02 03:17:59;;;;;;;10.95;4.80;;;13.40;95.10;;;;;;5027851;28;20067;-67
2023/01/02 03:20:32;;;;;;;8.43;4.22;;;13.40;95.20;;;;;;5026545;28;20034;-66
2023/01/02 03:23:04;;;;;;;9.25;4.80;;;13.40;95.20;;;;;;5027538;28;20025;-66
2023/01/02 03:25:32;;;;;;;11.35;3.90;;;13.40;95.30;;;;;;5026718;28;20025;-67
2023/01/02 03:28:00;;;;;;;9.88;5.07;;;13.40;95.40;;;;;;5029565;28;20029;-67
2023/01/02 03:30:29;;;;;;;8.30;4.47;;;13.40;95.40;;;;;;5026263;28;20036;-67
2023/01/02 03:33:00;;;;;;;11.52;5.35;;;13.40;95.50;;;;;;5027896;28;20480;-67
2023/01/02 03:35:31;;;;;;;8.27;4.18;;;13.40;95.70;;;;;;5027190;28;20060;-67
2023/01/02 03:37:58;;;;;;;9.85;4.40;;;13.40;95.70;;;;;;5027201;28;20040;-66
2023/01/02 03:40:37;;;;;;;9.60;4.40;;;13.40;95.60;;;;;;5026925;28;20053;-66
2023/01/02 03:43:17;;;;;;;8.35;3.97;;;13.40;95.60;;;;;;5024777;28;20030;-66
2023/01/02 03:46:21;;;;;;;7.85;3.95;;;13.50;95.60;;;;;;5023227;28;20022;-66
2023/01/02 03:48:52;;;;;;;10.30;4.45;;;13.50;95.60;;;;;;5022089;28;20033;-66
2023/01/02 03:51:18;;;;;;;9.77;4.10;;;13.40;95.60;;;;;;5026730;28;20025;-66
2023/01/02 03:53:44;;;;;;;6.85;3.97;;;13.40;95.60;;;;;;5020620;28;20499;-66
2023/01/02 03:56:31;;;;;;;9.93;4.28;;;13.50;95.70;;;;;;5025901;28;20029;-66
2023/01/02 03:59:05;;;;;;;9.48;4.22;;;13.50;95.60;;;;;;5022823;28;20655;-66
2023/01/02 04:01:51;;;;;;;8.60;3.90;;;13.50;95.50;;;;;;5017880;28;20037;-66
2023/01/02 04:04:22;;;;;;;9.10;4.00;;;13.50;95.50;;;;;;5028847;28;20041;-66
2023/01/02 04:06:54;;;;;;;7.40;3.40;;;13.50;95.70;;;;;;5028531;28;20408;-67
2023/01/02 04:09:23;;;;;;;;;;;13.60;95.40;;;;;;5027156;28;20017;-66
2023/01/02 04:11:54;;;;;;;10.27;4.70;;;13.60;95.60;;;;;;5028275;28;19909;-66
2023/01/02 04:14:29;;;;;;;8.07;3.92;;;13.50;95.40;;;;;;5026045;28;20025;-66
2023/01/02 04:16:55;;;;;;;8.48;4.10;;;13.50;95.40;;;;;;5028006;28;20044;-66
2023/01/02 04:19:34;;;;;;;11.48;5.07;;;13.50;95.40;;;;;;5022921;28;20503;-66
2023/01/02 04:22:05;;;;;;;9.93;4.63;;;13.60;95.40;;;;;;5027405;28;20738;-66
2023/01/02 04:24:37;;;;;;;7.57;3.40;;;13.50;95.30;;;;;;5028114;28;20427;-66
2023/01/02 04:27:08;;;;;;;9.80;4.50;;;13.60;95.30;;;;;;5026999;28;20163;-66
2023/01/02 04:29:34;;;;;;;12.40;4.15;;;13.50;95.30;;;;;;5028324;28;20045;-66
2023/01/02 04:32:08;;;;;;;9.93;4.30;;;13.50;95.30;;;;;;5029883;28;20111;-66
2023/01/02 04:34:36;;;;;;;9.38;3.40;;;13.60;95.30;;;;;;5032141;28;20045;-67
2023/01/02 04:37:02;;;;;;;7.43;4.35;;;13.50;95.40;;;;;;5032285;28;20025;-67
2023/01/02 04:39:28;;;;;;;9.23;3.40;;;13.50;95.40;;;;;;5032452;28;20044;-67
2023/01/02 04:41:54;;;;;;;7.50;3.97;;;13.50;95.40;;;;;;5032170;28;20029;-67
2023/01/02 04:44:20;;;;;;;6.35;3.35;;;13.60;95.40;;;;;;5032014;28;20079;-66
2023/01/02 04:46:45;;;;;;;5.75;3.50;;;13.60;95.40;;;;;;5028405;28;20021;-66
2023/01/02 04:49:11;;;;;;;7.40;3.30;;;13.60;95.40;;;;;;5030337;28;20430;-66
2023/01/02 04:51:37;;;;;;;7.07;3.60;;;13.60;95.50;;;;;;5032464;28;20042;-68
2023/01/02 04:54:02;;;;;;;6.78;3.30;;;13.60;95.50;;;;;;5029985;28;20099;-68
2023/01/02 04:56:28;;;;;;;8.43;4.13;;;13.60;95.50;;;;;;5031783;28;20037;-68
2023/01/02 04:58:53;;;;;;;7.55;3.72;;;13.50;95.50;;;;;;5031972;28;20025;-67
2023/01/02 05:01:20;;;;;;;6.38;3.53;;;13.60;95.50;;;;;;5030462;28;20119;-67
2023/01/02 05:03:48;;;;;;;9.45;3.95;;;13.60;95.50;;;;;;5028991;28;20507;-67
2023/01/02 05:06:14;;;;;;;7.20;3.70;;;13.60;95.50;;;;;;5032022;28;20085;-67
2023/01/02 05:08:40;;;;;;;7.50;3.35;;;13.60;95.60;;;;;;5031929;28;20022;-67
2023/01/02 05:11:08;;;;;;;7.32;3.33;;;13.50;95.50;;;;;;5029759;28;20029;-67
2023/01/02 05:13:34;;;;;;;8.93;3.10;;;13.50;95.50;;;;;;5030244;28;20045;-67
2023/01/02 05:16:00;;;;;;;7.50;3.42;;;13.60;95.60;;;;;;5032964;28;20068;-67
2023/01/02 05:18:30;;;;;;;6.88;3.50;;;13.50;95.60;;;;;;5032537;28;20095;-66
2023/01/02 05:23:47;;;;;;;9.07;4.15;;;13.50;95.60;;;;;;5031091;28;20029;-67
2023/01/02 05:23:53;;;;;;;5.22;3.20;;;13.50;95.60;;;;;;5025781;28;20041;-67
2023/01/02 05:26:19;;;;;;;6.15;3.20;;;13.50;95.70;;;;;;5032447;28;20056;-67
2023/01/02 05:28:44;;;;;;;7.38;3.60;;;13.50;95.70;;;;;;5030870;28;20512;-66
2023/01/02 05:31:10;;;;;;;10.52;4.85;;;13.50;95.70;;;;;;5030513;28;20638;-66
2023/01/02 05:33:36;;;;;;;5.80;3.30;;;13.50;95.70;;;;;;5030498;28;20108;-66
2023/01/02 05:36:07;;;;;;;4.95;3.13;;;13.50;95.70;;;;;;5030009;28;20474;-66
2023/01/02 05:38:34;;;;;;;7.10;3.00;;;13.50;95.70;;;;;;5027592;28;20033;-66
2023/01/02 05:41:04;;;;;;;7.28;3.40;;;13.60;95.70;;;;;;5029962;28;20480;-67
2023/01/02 05:43:31;;;;;;;6.18;3.40;;;13.60;95.60;;;;;;5028461;28;20029;-67
2023/01/02 05:45:57;;;;;;;9.18;3.90;;;13.60;95.50;;;;;;5030094;28;20080;-67
2023/01/02 05:48:23;;;;;;;5.38;3.47;;;13.60;95.50;;;;;;5028597;28;20451;-67
2023/01/02 05:50:48;;;;;;;7.68;3.20;;;13.60;95.40;;;;;;5029641;28;20033;-67
2023/01/02 05:53:16;;;;;;;5.80;3.20;;;13.60;95.40;;;;;;5030479;28;20052;-67
2023/01/02 05:55:42;;;;;;;6.38;3.50;;;13.60;95.30;;;;;;5029943;28;20026;-67
2023/01/02 05:58:07;;;;;;;8.50;4.38;;;13.60;95.30;;;;;;5030424;28;20032;-67
2023/01/02 06:00:33;;;;;;;8.05;3.83;;;13.60;95.20;;;;;;5028318;28;20025;-67
2023/01/02 06:02:58;;;;;;;7.95;3.47;;;13.60;95.20;;;;;;5030990;28;20109;-67
2023/01/02 06:05:24;;;;;;;8.68;3.95;;;13.60;95.10;;;;;;5030821;28;20416;-66
2023/01/02 06:07:49;;;;;;;7.25;3.47;;;13.60;95.10;;;;;;5030650;28;20392;-66
2023/01/02 06:10:15;;;;;;;6.45;3.10;;;13.60;95.10;;;;;;5031423;28;20384;-66
2023/01/02 06:12:41;;;;;;;6.28;3.42;;;13.60;95.10;;;;;;5031422;28;20104;-66
2023/01/02 06:15:07;;;;;;;5.13;2.88;;;13.60;95.00;;;;;;5030143;28;20430;-66
2023/01/02 06:17:33;;;;;;;7.63;3.75;;;13.60;95.00;;;;;;5030832;28;20456;-66
2023/01/02 06:19:58;;;;;;;6.80;3.47;;;13.70;95.00;;;;;;5030189;28;20060;-66
2023/01/02 06:22:24;;;;;;;9.65;3.58;;;13.60;94.90;;;;;;5029719;28;20018;-66
2023/01/02 06:24:49;;;;;;;9.23;3.70;;;13.60;94.90;;;;;;5029630;28;20164;-66
2023/01/02 06:27:15;;;;;;;6.78;3.28;;;13.60;94.90;;;;;;5031294;28;20029;-66
2023/01/02 06:29:40;;;;;;;6.90;3.70;;;13.60;94.90;;;;;;5026833;28;20068;-66
2023/01/02 06:32:06;;;;;;;7.10;3.70;;;13.60;94.80;;;;;;5028371;28;21166;-66
2023/01/02 06:34:31;;;;;;;5.55;3.20;;;13.60;94.80;;;;;;5025141;28;20058;-66
2023/01/02 06:36:57;;;;;;;5.88;3.40;;;13.50;94.90;;;;;;5027378;28;20106;-67
2023/01/02 06:39:22;;;;;;;6.75;3.38;;;13.50;94.90;;;;;;5030534;28;20025;-67
2023/01/02 06:41:48;;;;;;;5.03;3.33;;;13.50;95.00;;;;;;5030666;28;20034;-66
2023/01/02 06:44:14;;;;;;;4.90;3.30;;;13.50;95.00;;;;;;5030896;28;20028;-67
2023/01/02 06:46:39;;;;;;;6.28;4.30;;;13.50;95.00;;;;;;5031034;28;20387;-66
2023/01/02 06:49:05;;;;;;;6.38;3.42;;;13.40;94.90;;;;;;5029390;28;20017;-67
2023/01/02 06:51:30;;;;;;;4.70;2.55;;;13.40;94.70;;;;;;5031066;28;20040;-67
2023/01/02 06:53:56;;;;;;;2.38;1.85;;;13.30;94.60;;;;;;5029339;28;20510;-67
2023/01/02 06:56:22;;;;;;;1.98;1.40;;;13.10;94.30;;;;;;5029434;28;20392;-67
2023/01/02 06:58:48;;;;;;;2.75;1.60;;;13.00;94.10;;;;;;5027690;28;20048;-67
2023/01/02 07:01:16;;;;;;;1.35;1.10;;;12.90;94.10;;;;;;5030664;28;20032;-66
2023/01/02 07:03:41;;;;;;;1.70;1.10;;;12.80;94.00;;;;;;5029752;28;20040;-66
2023/01/02 07:06:12;;;;;;;1.10;0.90;;;12.80;94.00;;;;;;5030444;28;20404;-66
2023/01/02 07:08:38;;;;;;;1.20;1.10;;;12.80;94.00;;;;;;5030494;28;20091;-66
2023/01/02 07:11:19;;;;;;;1.17;1.08;;;12.70;94.00;;;;;;5030494;28;20025;-66
2023/01/02 07:13:46;;;;;;;1.10;0.93;;;12.60;93.90;;;;;;5030903;28;20391;-66
2023/01/02 07:16:14;;;;;;;0.80;0.80;;;12.50;93.60;;;;;;5029811;28;20095;-66
2023/01/02 07:18:40;;;;;;;0.80;0.80;;;12.50;93.60;;;;;;5028516;28;20029;-66
2023/01/02 07:21:11;;;;;;;0.80;0.80;;;12.40;93.70;;;;;;5030447;28;20032;-66
2023/01/02 07:23:37;;;;;;;1.08;0.98;;;12.40;93.60;;;;;;5022849;28;20488;-66
2023/01/02 07:26:04;;;;;;;1.48;1.30;;;12.30;93.50;;;;;;5030588;28;20033;-66
2023/01/02 07:28:29;;;;;;;1.38;1.27;;;12.20;93.50;;;;;;5028553;28;20036;-66
2023/01/02 07:31:00;;;;;;;1.83;1.40;;;12.20;93.50;;;;;;5024962;28;20389;-67
2023/01/02 07:33:29;;;;;;;1.60;1.50;;;12.10;93.50;;;;;;5021516;28;20033;-67
2023/01/02 07:35:59;;;;;;;1.85;1.75;;;12.10;93.50;;;;;;5029636;28;20025;-66
2023/01/02 07:38:25;;;;;;;1.52;1.42;;;12.00;93.40;;;;;;5028016;28;20392;-67
2023/01/02 07:40:50;;;;;;;1.77;1.60;;;12.00;93.40;;;;;;5028239;28;20017;-66
2023/01/02 07:43:16;;;;;;;1.40;1.30;;;12.00;93.50;;;;;;5028918;28;20029;-66
2023/01/02 07:45:41;;;;;;;2.53;2.30;;;12.00;93.60;;;;;;5028656;28;20022;-66
2023/01/02 07:48:07;;;;;;;2.10;1.90;;;12.00;93.40;;;;;;5028096;28;20025;-66
2023/01/02 07:50:32;;;;;;;2.13;1.90;;;11.90;93.40;;;;;;5028027;28;20131;-66
2023/01/02 07:52:58;;;;;;;2.33;2.13;;;11.90;93.40;;;;;;5028197;28;20029;-66
2023/01/02 07:55:24;;;;;;;1.92;1.80;;;11.90;93.40;;;;;;5028274;28;20040;-66
2023/01/02 07:57:49;;;;;;;1.77;1.67;;;11.80;93.40;;;;;;5027986;28;20036;-66
2023/01/02 08:00:18;;;;;;;2.60;2.40;;;11.80;93.40;;;;;;5027760;28;20029;-66
2023/01/02 08:02:45;;;;;;;2.10;1.90;;;11.80;93.40;;;;;;5028672;28;20365;-66
2023/01/02 08:05:10;;;;;;;2.85;2.10;;;11.90;93.80;;;;;;5023513;28;20387;-66
2023/01/02 08:07:36;;;;;;;3.00;2.70;;;11.80;93.40;;;;;;5023123;28;20032;-66
2023/01/02 08:10:02;;;;;;;3.08;2.78;;;11.80;93.40;;;;;;5025075;28;20021;-66
2023/01/02 08:12:28;;;;;;;3.30;3.00;;;11.80;93.40;;;;;;5023744;28;20013;-67
2023/01/02 08:14:53;;;;;;;4.00;3.33;;;11.80;93.40;;;;;;5028452;28;20388;-65
2023/01/02 08:17:19;;;;;;;3.35;3.05;;;11.70;93.40;;;;;;5022974;28;20053;-66
2023/01/02 08:19:44;;;;;;;4.05;3.45;;;11.70;93.50;;;;;;5033693;28;20025;-67
2023/01/02 08:22:10;;;;;;;4.10;3.38;;;11.70;93.50;;;;;;5026711;28;20025;-67
2023/01/02 08:24:36;;;;;;;3.70;3.30;;;11.80;93.50;;;;;;5023641;28;20033;-68
2023/01/02 08:27:01;;;;;;;4.70;4.18;;;11.80;93.50;;;;;;5024008;28;20511;-67
2023/01/02 08:29:27;;;;;;;4.70;4.20;;;11.70;93.50;;;;;;5023641;28;20036;-67
2023/01/02 08:31:52;;;;;;;4.88;4.25;;;11.70;93.50;;;;;;5022961;28;20392;-66
2023/01/02 08:34:18;;;;;;;5.28;4.20;;;11.70;93.60;;;;;;5020809;28;20052;-67
2023/01/02 08:36:44;;;;;;;5.35;4.60;;;11.70;93.60;;;;;;5023254;28;20034;-66
2023/01/02 08:39:10;;;;;;;4.78;4.28;;;11.70;93.60;;;;;;5023921;28;20103;-67
2023/01/02 08:41:37;;;;;;;5.72;4.40;;;11.60;93.60;;;;;;5020927;28;20537;-67
2023/01/02 08:44:03;;;;;;;4.93;4.10;;;11.60;93.60;;;;;;5022703;28;20036;-67
2023/01/02 08:46:30;;;;;;;4.53;3.90;;;11.60;93.70;;;;;;5022398;28;20018;-67
2023/01/02 08:48:57;;;;;;;4.35;3.63;;;11.60;93.60;;;;;;5024830;28;20041;-67
2023/01/02 08:51:23;;;;;;;4.65;3.92;;;11.60;93.70;;;;;;5024479;28;20029;-66
2023/01/02 08:53:49;;;;;;;4.75;3.67;;;11.50;93.60;;;;;;5023062;28;20037;-66
2023/01/02 08:56:24;;;;;;;4.32;3.65;;;11.60;93.70;;;;;;5022345;28;20030;-67
2023/01/02 08:59:02;;;;;;;4.28;3.58;;;11.50;93.70;;;;;;5024091;28;20030;-66
2023/01/02 09:01:29;;;;;;;4.65;3.53;;;11.60;93.70;;;;;;5022613;28;20129;-67
2023/01/02 09:03:55;;;;;;;5.25;3.65;;;11.60;93.70;;;;;;5022866;28;20033;-66
2023/01/02 09:06:23;;;;;;;4.78;3.47;;;11.60;93.50;;;;;;5026657;28;20116;-66
2023/01/02 09:08:51;;;;;;;3.60;3.10;;;11.50;93.40;;;;;;5023749;28;20034;-66
2023/01/02 09:11:19;;;;;;;3.55;3.13;;;11.50;93.40;;;;;;5022564;28;20604;-67
2023/01/02 09:13:45;;;;;;;3.83;3.20;;;11.40;93.30;;;;;;5024903;28;20030;-66
2023/01/02 09:16:11;;;;;;;4.03;3.30;;;11.40;93.40;;;;;;5026089;28;20037;-66
2023/01/02 09:18:38;;;;;;;3.90;2.83;;;11.40;93.30;;;;;;5030398;28;20036;-67
2023/01/02 09:21:04;;;;;;;4.13;3.10;;;11.40;93.20;;;;;;5027687;28;20558;-66
2023/01/02 09:23:31;;;;;;;4.57;3.20;;;11.40;93.20;;;;;;5028918;28;20109;-66
2023/01/02 09:26:03;;;;;;;4.28;3.35;;;11.40;93.20;;;;;;5020907;28;20018;-66
2023/01/02 09:28:30;;;;;;;4.32;3.22;;;11.30;93.00;;;;;;5030186;28;20021;-66
2023/01/02 09:30:56;;;;;;;4.65;3.20;;;11.30;93.10;;;;;;5028770;28;20483;-66
2023/01/02 09:33:22;;;;;;;3.53;2.58;;;11.30;93.10;;;;;;5030236;28;20029;-67
2023/01/02 09:35:48;;;;;;;3.53;3.00;;;11.30;93.10;;;;;;5024704;28;20069;-67
2023/01/02 09:38:13;;;;;;;5.18;3.30;;;11.30;93.10;;;;;;5023335;28;20033;-68
2023/01/02 09:40:51;;;;;;;4.68;3.38;;;11.30;93.10;;;;;;5022179;28;20099;-66
2023/01/02 09:43:41;;;;;;;5.13;3.22;;;11.30;93.00;;;;;;5025093;28;20026;-66
2023/01/02 09:46:16;;;;;;;4.35;3.05;;;11.30;93.00;;;;;;5026158;28;20041;-66
2023/01/02 09:48:42;;;;;;;3.95;3.10;;;11.20;93.00;;;;;;5023932;28;20026;-66
2023/01/02 09:51:10;;;;;;;4.25;3.15;;;11.20;93.00;;;;;;5020312;28;20057;-66
2023/01/02 09:53:35;;;;;;;4.45;3.35;;;11.30;93.00;;;;;;5022810;28;20029;-67
2023/01/02 09:56:12;;;;;;;5.05;3.67;;;11.30;92.90;;;;;;5023064;28;20336;-66
2023/01/02 09:58:44;;;;;;;5.35;3.40;;;11.30;92.90;;;;;;5023898;28;20408;-66
2023/01/02 10:01:14;;;;;;;;;;;11.30;92.80;;;;;;5024077;28;20053;-66
2023/01/02 10:03:56;;;;;;;4.50;3.50;;;11.30;92.70;;;;;;5023900;28;19913;-66
2023/01/02 10:06:41;;;;;;;3.95;3.35;;;11.30;92.80;;;;;;5022041;28;20025;-66
2023/01/02 10:09:23;;;;;;;4.68;3.70;;;11.40;92.80;;;;;;5023864;28;20029;-65
2023/01/02 10:12:10;;;;;;;4.30;3.35;;;11.30;92.60;;;;;;5026338;28;20124;-65
2023/01/02 10:14:57;;;;;;;4.75;3.38;;;11.30;92.60;;;;;;5028050;28;20502;-64
2023/01/02 10:17:26;;;;;;;4.47;3.20;;;11.30;92.60;;;;;;5020158;28;20037;-67
2023/01/02 10:20:01;;;;;;;3.70;3.20;;;11.30;92.60;;;;;;5019810;28;20025;-64
2023/01/02 10:22:37;;;;;;;4.32;3.40;;;11.30;92.50;;;;;;5022367;28;20369;-67
2023/01/02 10:25:17;;;;;;;2.72;2.30;;;11.30;92.40;;;;;;5025421;28;20078;-64
2023/01/02 10:27:51;;;;;;;3.35;2.40;;;11.30;92.40;;;;;;5024929;28;20104;-64
2023/01/02 10:30:31;;;;;;;3.83;2.67;;;11.30;92.40;;;;;;5021413;28;20129;-64
2023/01/02 10:33:40;;;;;;;4.80;2.60;;;11.30;92.30;;;;;;5024110;28;20029;-66
2023/01/02 10:36:20;;;;;;;3.10;2.15;;;11.20;92.20;;;;;;5005952;28;20157;-66
2023/01/02 10:38:46;;;;;;;3.50;1.95;;;11.20;92.20;;;;;;5026875;28;20069;-65
2023/01/02 10:41:11;;;;;;;3.10;2.03;;;11.30;92.20;;;;;;5029035;28;20061;-66
2023/01/02 10:43:37;;;;;;;3.60;2.38;;;11.30;92.10;;;;;;5028659;28;20583;-66
2023/01/02 10:46:03;;;;;;;6.18;2.90;;;11.30;92.00;;;;;;5028176;28;20029;-65
2023/01/02 10:48:32;;;;;;;4.90;2.55;;;11.30;92.00;;;;;;5028655;28;20384;-65
2023/01/02 10:51:02;;;;;;;3.47;2.13;;;11.40;91.90;;;;;;5027659;28;20025;-66
2023/01/02 10:53:33;;;;;;;4.43;2.20;;;11.40;92.10;;;;;;5026134;28;20033;-66
2023/01/02 10:56:25;;;;;;;3.22;1.83;;;11.40;91.80;;;;;;5029177;28;20029;-66
2023/01/02 10:58:51;;;;;;;4.72;1.88;;;11.40;91.60;;;;;;5027761;28;20055;-66
2023/01/02 11:01:20;;;;;;;3.42;1.80;;;11.40;91.60;;;;;;5026674;28;20033;-65
2023/01/02 11:03:52;;;;;;;3.28;2.10;;;11.30;91.50;;;;;;5030190;28;20530;-66
2023/01/02 11:06:24;;;;;;;3.42;2.17;;;11.30;91.50;;;;;;5028191;28;20033;-67
2023/01/02 11:09:13;;;;;;;2.97;1.70;;;11.40;91.60;;;;;;5027044;28;20392;-66
2023/01/02 11:11:48;;;;;;;3.72;1.98;;;11.40;91.50;;;;;;5025617;28;20037;-66
2023/01/02 11:14:14;;;;;;;3.53;1.90;;;11.40;91.50;;;;;;5025893;28;20064;-66
2023/01/02 11:16:40;;;;;;;2.45;1.60;;;11.40;91.50;;;;;;5026836;28;20061;-66
2023/01/02 11:19:20;;;;;;;3.83;2.20;;;11.40;91.40;;;;;;5028329;28;20040;-66
2023/01/02 11:21:47;;;;;;;3.83;2.15;;;11.50;91.40;;;;;;5028051;28;20725;-66
2023/01/02 11:24:18;;;;;;;3.35;2.15;;;11.50;91.40;;;;;;5028028;28;20657;-66
2023/01/02 11:26:46;;;;;;;3.88;2.08;;;11.50;91.40;;;;;;5027754;28;20396;-66
2023/01/02 11:29:32;;;;;;;5.28;2.40;;;11.50;91.60;;;;;;5028905;28;20013;-66
2023/01/02 11:32:02;;;;;;;5.20;2.47;;;11.50;91.20;;;;;;5024291;28;20057;-66
2023/01/02 11:34:39;;;;;;;3.90;2.10;;;11.50;91.20;;;;;;5026515;28;20033;-65
2023/01/02 11:37:10;;;;;;;2.85;2.00;;;11.60;91.30;;;;;;5028481;28;20068;-66
2023/01/02 11:39:37;;;;;;;3.00;2.00;;;11.60;91.10;;;;;;5027402;28;20029;-66
2023/01/02 11:45:07;;;;;;;2.85;2.00;;;11.60;91.10;;;;;;5027624;28;20455;-66
2023/01/02 11:47:43;;;;;;;4.97;2.25;;;11.70;91.10;;;;;;5028361;28;20032;-66
2023/01/02 11:50:27;;;;;;;3.05;1.67;;;11.70;91.00;;;;;;5020541;28;20079;-66
2023/01/02 11:53:13;;;;;;;4.88;2.10;;;11.70;91.00;;;;;;5024019;28;20064;-66
2023/01/02 11:55:52;;;;;;;3.05;1.88;;;11.60;90.90;;;;;;5018985;28;20022;-66
2023/01/02 11:58:29;;;;;;;3.65;1.73;;;11.60;90.90;;;;;;5026763;28;20373;-66
2023/01/02 12:01:03;;;;;;;4.53;1.90;;;11.60;90.90;;;;;;5023706;28;20467;-65
2023/01/02 12:03:31;;;;;;;3.80;1.60;;;11.70;90.90;;;;;;5022595;28;20048;-65
2023/01/02 12:06:20;;;;;;;4.50;1.67;;;11.70;90.80;;;;;;5025533;28;20547;-66
2023/01/02 12:08:49;;;;;;;6.22;1.98;;;11.70;90.80;;;;;;5026261;28;20124;-66
2023/01/02 12:11:33;;;;;;;3.42;1.80;;;11.70;90.50;;;;;;5024631;28;20491;-66
2023/01/02 12:14:04;;;;;;;3.70;1.70;;;11.60;90.50;;;;;;5020295;28;20029;-66
2023/01/02 12:17:14;;;;;;;2.85;1.38;;;11.70;90.50;;;;;;5020837;28;20073;-65
2023/01/02 12:19:46;;;;;;;2.67;1.58;;;11.70;90.40;;;;;;5024197;28;20044;-66
2023/01/02 12:22:24;;;;;;;;;;;11.70;90.40;;;;;;5024268;28;20041;-65
2023/01/02 12:24:57;;;;;;;2.90;1.90;;;11.70;90.40;;;;;;5024830;28;19909;-69
2023/01/02 12:27:33;;;;;;;4.53;1.83;;;11.70;90.50;;;;;;5025184;28;20065;-65
2023/01/02 12:30:14;;;;;;;3.97;1.80;;;11.70;90.40;;;;;;5024145;28;20030;-65
2023/01/02 12:32:43;;;;;;;4.72;2.40;;;11.80;90.50;;;;;;5021669;28;21671;-65
2023/01/02 12:35:27;;;;;;;6.95;2.88;;;11.70;90.40;;;;;;5023685;28;20085;-65
2023/01/02 12:37:56;;;;;;;4.25;2.50;;;11.70;90.40;;;;;;5027388;28;20033;-66
2023/01/02 12:40:49;;;;;;;5.82;3.08;;;11.80;90.50;;;;;;5023511;28;20021;-66
2023/01/02 12:43:42;;;;;;;6.00;3.03;;;11.70;90.40;;;;;;5023868;28;20026;-67
2023/01/02 12:46:27;;;;;;;5.57;3.00;;;11.70;90.40;;;;;;5020581;28;20615;-67
2023/01/02 12:49:05;;;;;;;4.82;3.10;;;11.70;90.40;;;;;;5026432;28;20469;-66
2023/01/02 12:52:01;;;;;;;4.32;2.90;;;11.70;90.50;;;;;;5021782;28;20051;-67
2023/01/02 12:54:45;;;;;;;5.78;3.45;;;11.70;90.50;;;;;;5028622;28;20038;-67
2023/01/02 12:57:36;;;;;;;4.70;2.90;;;11.70;90.50;;;;;;5029083;28;20462;-66
2023/01/02 13:00:40;;;;;;;5.83;2.87;;;11.70;90.50;;;;;;5029608;28;20036;-66
2023/01/02 13:03:26;;;;;;;5.97;3.40;;;11.70;90.50;;;;;;5028198;28;20061;-65
2023/01/02 13:06:05;;;;;;;5.32;3.15;;;11.70;90.50;;;;;;5022441;28;20038;-66
2023/01/02 13:08:51;;;;;;;5.70;3.00;;;11.70;90.50;;;;;;5028722;28;20025;-66